Time;durP1;ratioP1;P1;durP2;ratioP2;P2;SDS_P1;SDS_P2;PMS_P1;PMS_P2;Temp;Humidity;BMP_temperature;BMP_pressure;BME280_temperature;BME280_humidity;BME280_pressure;Samples;Min_cycle;Max_cycle;Signal;HPM_P1;HPM_P2
2021/08/26 00:00:57;;;;;;;10.85;2.85;;;;;;;;;;4972630;28;20449;-59
2021/08/26 00:06:08;;;;;;;19.50;2.60;;;;;;;;;;4984965;28;20038;-60
2021/08/26 00:08:36;;;;;;;15.40;2.40;;;;;;;;;;4980716;28;20092;-60
2021/08/26 00:11:05;;;;;;;23.08;2.60;;;;;;;;;;4983419;28;20030;-60
2021/08/26 00:13:30;;;;;;;21.08;2.70;;;;;;;;;;4985257;28;20108;-60
2021/08/26 00:15:58;;;;;;;21.80;2.95;;;;;;;;;;4976875;28;20045;-60
2021/08/26 00:18:26;;;;;;;11.95;2.10;;;;;;;;;;4985052;28;20033;-60
2021/08/26 00:20:54;;;;;;;15.23;2.65;;;;;;;;;;4986867;28;20025;-61
2021/08/26 00:23:21;;;;;;;27.30;2.70;;;;;;;;;;4983338;28;20082;-59
2021/08/26 00:25:47;;;;;;;15.48;1.70;;;;;;;;;;4969583;28;20092;-59
2021/08/26 00:28:19;;;;;;;10.40;1.92;;;;;;;;;;4983297;28;20156;-61
2021/08/26 00:30:45;;;;;;;28.30;2.72;;;;;;;;;;4969073;28;20065;-61
2021/08/26 00:33:13;;;;;;;16.90;2.08;;;;;;;;;;4963950;28;20113;-61
2021/08/26 00:35:38;;;;;;;22.92;2.67;;;;;;;;;;4966978;28;20120;-61
2021/08/26 00:38:04;;;;;;;19.58;2.60;;;;;;;;;;4984695;28;20037;-62
2021/08/26 00:40:30;;;;;;;24.15;2.60;;;;;;;;;;4987090;28;20037;-62
2021/08/26 00:42:59;;;;;;;14.98;2.20;;;;;;;;;;4981689;28;20129;-61
2021/08/26 00:45:25;;;;;;;19.95;2.58;;;;;;;;;;4986088;28;20057;-61
2021/08/26 00:47:52;;;;;;;10.93;2.10;;;;;;;;;;4969606;28;20046;-61
2021/08/26 00:50:22;;;;;;;23.20;1.73;;;;;;;;;;4985743;28;20086;-61
2021/08/26 00:52:47;;;;;;;17.98;2.60;;;;;;;;;;4968630;28;20191;-60
2021/08/26 00:55:14;;;;;;;8.80;1.98;;;;;;;;;;4985584;28;20489;-61
2021/08/26 00:57:42;;;;;;;11.07;2.20;;;;;;;;;;4964770;28;20034;-60
2021/08/26 01:00:11;;;;;;;12.80;1.98;;;;;;;;;;4982784;28;20033;-60
2021/08/26 01:02:37;;;;;;;13.70;2.42;;;;;;;;;;4982143;28;20037;-61
2021/08/26 01:05:19;;;;;;;13.02;2.10;;;;;;;;;;4986428;28;22056;-60
2021/08/26 01:07:55;;;;;;;14.23;2.60;;;;;;;;;;4964296;28;20115;-60
2021/08/26 01:10:22;;;;;;;15.70;1.75;;;;;;;;;;4970192;28;20554;-60
2021/08/26 01:12:52;;;;;;;13.40;1.52;;;;;;;;;;4984157;28;20036;-61
2021/08/26 01:15:20;;;;;;;27.05;2.45;;;;;;;;;;4985082;28;20049;-61
2021/08/26 01:17:46;;;;;;;15.10;2.60;;;;;;;;;;4966303;28;20072;-60
2021/08/26 01:20:13;;;;;;;13.20;2.50;;;;;;;;;;4985253;28;20039;-62
2021/08/26 01:22:39;;;;;;;14.13;2.67;;;;;;;;;;4982475;28;21193;-60
2021/08/26 01:25:06;;;;;;;22.35;1.98;;;;;;;;;;4982362;28;20044;-61
2021/08/26 01:27:37;;;;;;;12.93;2.42;;;;;;;;;;4982275;28;20033;-61
2021/08/26 01:30:06;;;;;;;13.35;1.63;;;;;;;;;;4982644;28;20049;-61
2021/08/26 01:32:34;;;;;;;13.68;1.70;;;;;;;;;;4966170;28;20022;-60
2021/08/26 01:35:06;;;;;;;12.52;1.90;;;;;;;;;;4982128;28;20025;-61
2021/08/26 01:37:31;;;;;;;17.42;2.03;;;;;;;;;;4980704;28;21285;-61
2021/08/26 01:39:57;;;;;;;13.20;1.75;;;;;;;;;;4970815;28;20041;-61
2021/08/26 01:42:23;;;;;;;12.25;2.08;;;;;;;;;;4979125;28;20046;-61
2021/08/26 01:44:52;;;;;;;7.38;1.55;;;;;;;;;;4963957;28;20953;-59
2021/08/26 01:47:20;;;;;;;7.57;1.23;;;;;;;;;;4954082;28;20025;-61
2021/08/26 01:49:52;;;;;;;8.70;1.30;;;;;;;;;;4980986;28;20018;-61
2021/08/26 01:52:19;;;;;;;4.10;1.70;;;;;;;;;;4985108;28;20026;-61
2021/08/26 01:54:49;;;;;;;15.10;1.40;;;;;;;;;;4983712;28;20046;-61
2021/08/26 01:57:14;;;;;;;7.72;1.00;;;;;;;;;;4960592;28;20191;-61
2021/08/26 01:59:40;;;;;;;6.38;1.17;;;;;;;;;;4985327;28;20029;-60
2021/08/26 02:02:10;;;;;;;6.22;1.50;;;;;;;;;;4980515;28;20038;-60
2021/08/26 02:04:36;;;;;;;22.27;2.22;;;;;;;;;;4969788;28;20041;-61
2021/08/26 02:07:01;;;;;;;10.80;1.33;;;;;;;;;;4982911;28;20069;-61
2021/08/26 02:09:29;;;;;;;7.97;1.20;;;;;;;;;;4984698;28;20056;-60
2021/08/26 02:11:55;;;;;;;5.93;2.13;;;;;;;;;;4966911;28;20044;-61
2021/08/26 02:14:23;;;;;;;8.45;1.40;;;;;;;;;;4981534;28;20034;-61
2021/08/26 02:16:48;;;;;;;19.05;1.85;;;;;;;;;;4952257;28;20523;-60
2021/08/26 02:19:16;;;;;;;8.38;1.30;;;;;;;;;;4983730;28;20034;-60
2021/08/26 02:21:43;;;;;;;17.35;1.80;;;;;;;;;;4952245;28;20061;-60
2021/08/26 02:24:09;;;;;;;10.57;1.52;;;;;;;;;;4962394;28;20087;-60
2021/08/26 02:26:59;;;;;;;5.82;1.70;;;;;;;;;;4963216;28;20116;-61
2021/08/26 02:29:27;;;;;;;10.90;1.48;;;;;;;;;;4981094;28;20113;-60
2021/08/26 02:31:55;;;;;;;14.38;1.55;;;;;;;;;;4981846;28;20029;-61
2021/08/26 02:34:20;;;;;;;12.10;1.92;;;;;;;;;;4971754;28;20038;-61
2021/08/26 02:36:48;;;;;;;14.25;1.88;;;;;;;;;;4982985;28;20029;-61
2021/08/26 02:39:45;;;;;;;10.40;2.00;;;;;;;;;;4970017;28;20092;-61
2021/08/26 02:42:13;;;;;;;9.27;1.80;;;;;;;;;;4983944;28;20079;-60
2021/08/26 02:44:39;;;;;;;9.45;1.48;;;;;;;;;;4988582;28;20053;-61
2021/08/26 02:47:07;;;;;;;13.15;2.00;;;;;;;;;;4964032;28;20751;-61
2021/08/26 02:49:37;;;;;;;11.18;1.75;;;;;;;;;;4976804;28;20111;-60
2021/08/26 02:52:05;;;;;;;14.10;2.58;;;;;;;;;;4986626;28;20038;-61
2021/08/26 02:54:31;;;;;;;13.23;2.72;;;;;;;;;;4971143;28;20107;-61
2021/08/26 02:56:56;;;;;;;12.32;1.60;;;;;;;;;;4986607;28;20038;-61
2021/08/26 02:59:21;;;;;;;27.33;2.00;;;;;;;;;;4951994;28;20390;-60
2021/08/26 03:01:52;;;;;;;16.73;2.00;;;;;;;;;;4969736;28;20022;-59
2021/08/26 03:04:17;;;;;;;18.42;2.45;;;;;;;;;;4984188;28;20404;-61
2021/08/26 03:07:14;;;;;;;8.88;1.88;;;;;;;;;;4965153;28;20029;-60
2021/08/26 03:09:39;;;;;;;16.45;2.72;;;;;;;;;;4967958;28;20061;-61
2021/08/26 03:12:07;;;;;;;20.75;2.58;;;;;;;;;;4983820;28;20025;-59
2021/08/26 03:14:35;;;;;;;13.60;3.00;;;;;;;;;;4985822;28;20084;-60
2021/08/26 03:17:01;;;;;;;14.07;2.97;;;;;;;;;;4968397;28;20108;-61
2021/08/26 03:19:29;;;;;;;17.45;3.40;;;;;;;;;;4988692;28;20041;-60
2021/08/26 03:21:56;;;;;;;16.50;2.35;;;;;;;;;;4987124;28;20836;-60
2021/08/26 03:24:22;;;;;;;21.80;3.38;;;;;;;;;;4980971;28;20068;-60
2021/08/26 03:26:48;;;;;;;26.50;3.13;;;;;;;;;;4985803;28;20041;-61
2021/08/26 03:29:15;;;;;;;18.45;3.67;;;;;;;;;;4986441;28;20108;-61
2021/08/26 03:31:43;;;;;;;14.75;2.55;;;;;;;;;;4987917;28;20052;-61
2021/08/26 03:34:08;;;;;;;19.48;3.35;;;;;;;;;;4985160;28;20714;-61
2021/08/26 03:36:34;;;;;;;24.02;2.97;;;;;;;;;;4983133;28;20030;-60
2021/08/26 03:39:02;;;;;;;17.13;2.63;;;;;;;;;;4985373;28;20123;-61
2021/08/26 03:41:27;;;;;;;25.35;2.70;;;;;;;;;;4987602;28;21373;-60
2021/08/26 03:43:53;;;;;;;14.00;2.85;;;;;;;;;;4985913;28;20045;-60
2021/08/26 03:46:21;;;;;;;22.73;2.88;;;;;;;;;;4983019;28;20025;-61
2021/08/26 03:48:48;;;;;;;16.67;2.42;;;;;;;;;;4987284;28;20712;-61
2021/08/26 03:51:16;;;;;;;16.15;3.17;;;;;;;;;;4988082;28;20030;-61
2021/08/26 03:53:41;;;;;;;20.10;3.47;;;;;;;;;;4967409;28;20057;-61
2021/08/26 03:56:09;;;;;;;25.00;3.47;;;;;;;;;;4986502;28;20025;-61
2021/08/26 03:58:39;;;;;;;18.73;3.00;;;;;;;;;;4971866;28;20092;-60
2021/08/26 04:01:07;;;;;;;15.05;3.30;;;;;;;;;;4949993;28;20573;-61
2021/08/26 04:03:35;;;;;;;19.90;2.88;;;;;;;;;;4987249;28;20584;-61
2021/08/26 04:06:03;;;;;;;21.83;2.72;;;;;;;;;;4982216;28;20121;-60
2021/08/26 04:08:31;;;;;;;16.52;3.10;;;;;;;;;;4986313;28;20139;-61
2021/08/26 04:10:58;;;;;;;20.50;3.17;;;;;;;;;;4964136;28;20088;-61
2021/08/26 04:13:24;;;;;;;26.10;4.38;;;;;;;;;;4983579;28;20034;-60
2021/08/26 04:15:52;;;;;;;19.95;3.22;;;;;;;;;;4982084;28;20701;-60
2021/08/26 04:18:17;;;;;;;20.80;3.25;;;;;;;;;;4984226;28;20113;-60
2021/08/26 04:20:43;;;;;;;19.60;2.95;;;;;;;;;;4984572;28;20729;-61
2021/08/26 04:23:12;;;;;;;17.10;3.28;;;;;;;;;;4985791;28;20045;-62
2021/08/26 04:25:37;;;;;;;21.02;3.10;;;;;;;;;;4983409;28;20045;-62
2021/08/26 04:28:03;;;;;;;20.13;3.70;;;;;;;;;;4982921;28;20042;-60
2021/08/26 04:30:28;;;;;;;15.07;3.65;;;;;;;;;;4982038;28;20038;-61
2021/08/26 04:32:54;;;;;;;17.55;2.78;;;;;;;;;;4985748;28;20119;-61
2021/08/26 04:35:20;;;;;;;18.50;3.00;;;;;;;;;;4964110;28;20029;-61
2021/08/26 04:37:47;;;;;;;21.50;3.90;;;;;;;;;;4984557;28;20856;-60
2021/08/26 04:40:16;;;;;;;21.35;3.90;;;;;;;;;;4973639;28;20113;-62
2021/08/26 04:42:41;;;;;;;25.33;4.28;;;;;;;;;;4969920;28;20103;-61
2021/08/26 04:45:09;;;;;;;20.83;3.17;;;;;;;;;;4982509;28;20046;-62
2021/08/26 04:47:36;;;;;;;13.18;3.05;;;;;;;;;;4964547;28;20073;-61
2021/08/26 04:50:09;;;;;;;26.67;3.83;;;;;;;;;;4986407;28;20029;-61
2021/08/26 04:52:35;;;;;;;24.85;4.13;;;;;;;;;;4988416;28;20061;-62
2021/08/26 04:55:00;;;;;;;24.90;4.05;;;;;;;;;;4988421;28;20125;-61
2021/08/26 04:57:54;;;;;;;20.13;4.18;;;;;;;;;;4970646;28;20030;-62
2021/08/26 05:00:22;;;;;;;22.27;3.95;;;;;;;;;;4986065;28;22101;-61
2021/08/26 05:02:51;;;;;;;23.80;3.65;;;;;;;;;;4985519;28;20025;-61
2021/08/26 05:05:16;;;;;;;20.60;3.25;;;;;;;;;;4987603;28;20032;-61
2021/08/26 05:07:41;;;;;;;18.27;3.35;;;;;;;;;;4985318;28;20030;-61
2021/08/26 05:10:09;;;;;;;25.42;4.07;;;;;;;;;;4965591;28;20243;-60
2021/08/26 05:12:39;;;;;;;25.17;3.72;;;;;;;;;;4985482;28;20123;-60
2021/08/26 05:15:05;;;;;;;32.40;3.78;;;;;;;;;;4986416;28;20040;-61
2021/08/26 05:17:31;;;;;;;15.60;3.50;;;;;;;;;;4989071;28;20037;-60
2021/08/26 05:19:56;;;;;;;19.08;3.95;;;;;;;;;;4953500;28;20034;-60
2021/08/26 05:25:57;;;;;;;22.52;4.13;;;;;;;;;;4986735;28;20028;-62
2021/08/26 05:28:25;;;;;;;16.85;3.50;;;;;;;;;;4962998;28;20038;-61
2021/08/26 05:30:53;;;;;;;22.08;4.13;;;;;;;;;;4971094;28;20049;-61
2021/08/26 05:33:18;;;;;;;14.85;2.83;;;;;;;;;;4985177;28;20033;-61
2021/08/26 05:35:48;;;;;;;16.38;3.10;;;;;;;;;;4972129;28;20118;-61
2021/08/26 05:38:16;;;;;;;15.48;3.05;;;;;;;;;;4986315;28;20526;-62
2021/08/26 05:40:44;;;;;;;18.63;3.58;;;;;;;;;;4987615;28;20422;-62
2021/08/26 05:43:15;;;;;;;20.85;3.53;;;;;;;;;;4986977;28;20069;-63
2021/08/26 05:45:46;;;;;;;13.32;2.80;;;;;;;;;;4988106;28;20974;-62
2021/08/26 05:48:11;;;;;;;15.73;2.58;;;;;;;;;;4969442;28;20071;-62
2021/08/26 05:50:37;;;;;;;17.05;3.17;;;;;;;;;;4987356;28;20035;-62
2021/08/26 05:53:07;;;;;;;16.33;2.92;;;;;;;;;;4984032;28;20524;-61
2021/08/26 05:55:35;;;;;;;13.68;2.92;;;;;;;;;;4949717;28;20034;-62
2021/08/26 05:58:03;;;;;;;24.00;3.60;;;;;;;;;;4969398;28;20065;-62
2021/08/26 06:00:29;;;;;;;12.07;2.67;;;;;;;;;;4986608;28;20753;-62
2021/08/26 06:02:54;;;;;;;20.80;2.92;;;;;;;;;;4986592;28;20038;-62
2021/08/26 06:05:23;;;;;;;18.15;2.47;;;;;;;;;;4983082;28;20042;-62
2021/08/26 06:07:53;;;;;;;18.13;3.53;;;;;;;;;;4964792;28;20433;-62
2021/08/26 06:10:21;;;;;;;17.48;2.90;;;;;;;;;;4952851;28;20037;-62
2021/08/26 06:12:48;;;;;;;16.77;3.13;;;;;;;;;;4949879;28;20037;-62
2021/08/26 06:15:16;;;;;;;14.05;2.67;;;;;;;;;;4989683;28;20080;-63
2021/08/26 06:17:46;;;;;;;17.10;2.83;;;;;;;;;;4987887;28;21032;-62
2021/08/26 06:20:16;;;;;;;15.90;2.83;;;;;;;;;;4989047;28;20041;-63
2021/08/26 06:22:43;;;;;;;15.02;3.25;;;;;;;;;;4988805;28;20041;-63
2021/08/26 06:25:09;;;;;;;12.40;2.38;;;;;;;;;;4969078;28;20034;-63
2021/08/26 06:27:37;;;;;;;17.45;2.80;;;;;;;;;;4985888;28;20033;-62
2021/08/26 06:30:09;;;;;;;10.38;3.22;;;;;;;;;;4992291;28;20961;-62
2021/08/26 06:32:35;;;;;;;17.77;2.97;;;;;;;;;;4964541;28;20026;-63
2021/08/26 06:35:04;;;;;;;21.30;3.45;;;;;;;;;;4981085;28;20029;-64
2021/08/26 06:37:30;;;;;;;18.88;3.13;;;;;;;;;;4960656;28;20722;-62
2021/08/26 06:39:59;;;;;;;15.88;3.00;;;;;;;;;;4979281;28;20396;-64
2021/08/26 06:42:26;;;;;;;14.15;3.08;;;;;;;;;;4983675;28;20060;-62
2021/08/26 06:44:54;;;;;;;19.83;2.58;;;;;;;;;;4980057;28;20037;-64
2021/08/26 06:47:22;;;;;;;19.65;2.95;;;;;;;;;;4977100;28;20034;-62
2021/08/26 06:49:47;;;;;;;18.75;3.13;;;;;;;;;;4977661;28;20060;-63
2021/08/26 06:52:13;;;;;;;16.10;3.10;;;;;;;;;;4960746;28;20116;-62
2021/08/26 06:54:39;;;;;;;12.90;2.70;;;;;;;;;;4980208;28;20049;-62
2021/08/26 06:57:07;;;;;;;14.48;3.13;;;;;;;;;;4964048;28;20041;-63
2021/08/26 06:59:33;;;;;;;21.33;3.88;;;;;;;;;;4977671;28;20052;-62
2021/08/26 07:01:59;;;;;;;21.00;3.38;;;;;;;;;;4973450;28;20038;-63
2021/08/26 07:04:25;;;;;;;20.77;3.25;;;;;;;;;;4978516;28;20065;-62
2021/08/26 07:06:53;;;;;;;16.38;2.80;;;;;;;;;;4960215;28;20072;-62
2021/08/26 07:09:19;;;;;;;18.17;2.78;;;;;;;;;;4939844;28;20046;-62
2021/08/26 07:11:48;;;;;;;16.38;2.65;;;;;;;;;;4962011;28;20033;-62
2021/08/26 07:14:16;;;;;;;23.58;3.13;;;;;;;;;;4979296;28;20026;-62
2021/08/26 07:16:44;;;;;;;21.70;3.20;;;;;;;;;;4977757;28;20069;-61
2021/08/26 07:19:12;;;;;;;21.70;3.53;;;;;;;;;;4960417;28;20124;-64
2021/08/26 07:21:38;;;;;;;20.48;2.67;;;;;;;;;;4971967;28;20034;-62
2021/08/26 07:24:06;;;;;;;29.52;3.85;;;;;;;;;;4978609;28;20045;-62
2021/08/26 07:26:32;;;;;;;24.70;3.25;;;;;;;;;;4978734;28;20084;-62
2021/08/26 07:29:00;;;;;;;21.90;3.30;;;;;;;;;;4987024;28;20130;-63
2021/08/26 07:31:28;;;;;;;17.80;4.07;;;;;;;;;;4974455;28;21414;-62
2021/08/26 07:33:54;;;;;;;23.92;4.25;;;;;;;;;;4985550;28;20034;-62
2021/08/26 07:36:19;;;;;;;18.27;2.60;;;;;;;;;;4970704;28;20053;-62
2021/08/26 07:38:44;;;;;;;18.33;2.88;;;;;;;;;;4989103;28;20512;-62
2021/08/26 07:41:14;;;;;;;16.10;3.03;;;;;;;;;;4987376;28;20775;-62
2021/08/26 07:43:42;;;;;;;17.08;2.92;;;;;;;;;;4964934;28;20044;-62
2021/08/26 07:46:12;;;;;;;21.35;3.20;;;;;;;;;;4988416;28;20017;-62
2021/08/26 07:48:38;;;;;;;28.00;2.83;;;;;;;;;;4985805;28;20104;-63
2021/08/26 07:51:05;;;;;;;16.83;3.17;;;;;;;;;;4986770;28;20034;-62
2021/08/26 07:53:32;;;;;;;18.73;3.83;;;;;;;;;;4972098;28;20034;-63
2021/08/26 07:55:57;;;;;;;20.88;3.33;;;;;;;;;;4987200;28;20041;-63
2021/08/26 07:58:29;;;;;;;11.10;2.70;;;;;;;;;;4964209;28;20049;-64
2021/08/26 08:00:57;;;;;;;18.85;2.63;;;;;;;;;;4985423;28;20026;-64
2021/08/26 08:03:33;;;;;;;16.42;2.85;;;;;;;;;;4974483;28;20038;-62
2021/08/26 08:06:00;;;;;;;16.13;3.05;;;;;;;;;;4988086;28;20026;-63
2021/08/26 08:08:29;;;;;;;12.23;3.20;;;;;;;;;;4988935;28;20030;-63
2021/08/26 08:10:56;;;;;;;15.07;3.20;;;;;;;;;;4967247;28;20037;-63
2021/08/26 08:13:22;;;;;;;20.60;3.00;;;;;;;;;;4984156;28;20049;-62
2021/08/26 08:15:47;;;;;;;22.13;2.92;;;;;;;;;;4989530;28;20052;-63
2021/08/26 08:18:13;;;;;;;16.08;2.65;;;;;;;;;;4988978;28;20034;-63
2021/08/26 08:20:41;;;;;;;12.07;2.53;;;;;;;;;;4968609;28;20544;-63
2021/08/26 08:23:09;;;;;;;16.65;2.10;;;;;;;;;;4985571;28;20033;-63
2021/08/26 08:25:40;;;;;;;17.70;3.00;;;;;;;;;;4983062;28;20053;-62
2021/08/26 08:28:13;;;;;;;10.32;2.15;;;;;;;;;;4970762;28;20042;-62
2021/08/26 08:30:42;;;;;;;11.00;2.22;;;;;;;;;;4970226;28;21447;-64
2021/08/26 08:33:08;;;;;;;12.77;2.58;;;;;;;;;;4970259;28;20033;-63
2021/08/26 08:35:38;;;;;;;14.57;2.55;;;;;;;;;;4989048;28;20030;-62
2021/08/26 08:38:04;;;;;;;19.75;2.72;;;;;;;;;;4986758;28;20832;-63
2021/08/26 08:40:32;;;;;;;15.48;3.42;;;;;;;;;;4986849;28;20025;-62
2021/08/26 08:43:00;;;;;;;19.25;2.78;;;;;;;;;;4986359;28;20025;-62
2021/08/26 08:45:26;;;;;;;20.23;2.35;;;;;;;;;;4988325;28;20059;-63
2021/08/26 08:47:52;;;;;;;8.27;2.10;;;;;;;;;;4984595;28;20084;-62
2021/08/26 08:50:24;;;;;;;14.75;2.60;;;;;;;;;;4972259;28;20478;-63
2021/08/26 08:52:52;;;;;;;16.85;2.80;;;;;;;;;;4967355;28;20034;-63
2021/08/26 08:55:19;;;;;;;17.02;2.50;;;;;;;;;;4987407;28;20026;-63
2021/08/26 08:57:45;;;;;;;17.15;2.83;;;;;;;;;;4983652;28;20542;-63
2021/08/26 09:00:12;;;;;;;14.65;2.97;;;;;;;;;;4969015;28;20026;-62
2021/08/26 09:02:40;;;;;;;8.95;2.35;;;;;;;;;;4964894;28;20052;-62
2021/08/26 09:05:06;;;;;;;11.48;2.75;;;;;;;;;;4963712;28;20017;-62
2021/08/26 09:07:32;;;;;;;17.63;2.38;;;;;;;;;;4982945;28;20045;-62
2021/08/26 09:10:03;;;;;;;12.98;2.92;;;;;;;;;;4980376;28;20029;-62
2021/08/26 09:12:41;;;;;;;11.93;2.58;;;;;;;;;;4979630;28;20394;-62
2021/08/26 09:15:10;;;;;;;11.55;2.58;;;;;;;;;;4984164;28;21317;-62
2021/08/26 09:17:39;;;;;;;11.13;2.88;;;;;;;;;;4985973;28;20088;-62
2021/08/26 09:20:08;;;;;;;11.57;2.33;;;;;;;;;;4965261;28;20131;-63
2021/08/26 09:22:37;;;;;;;13.13;2.45;;;;;;;;;;4986026;28;20696;-63
2021/08/26 09:25:03;;;;;;;13.35;2.15;;;;;;;;;;4984228;28;20083;-62
2021/08/26 09:27:31;;;;;;;13.25;2.80;;;;;;;;;;4985655;28;20128;-61
2021/08/26 09:30:01;;;;;;;11.80;2.30;;;;;;;;;;4988315;28;20496;-63
2021/08/26 09:32:36;;;;;;;9.43;2.10;;;;;;;;;;4971754;28;20034;-63
2021/08/26 09:35:19;;;;;;;11.20;2.03;;;;;;;;;;4985091;28;20033;-63
2021/08/26 09:37:47;;;;;;;11.38;2.58;;;;;;;;;;4988009;28;20041;-63
2021/08/26 09:40:13;;;;;;;11.23;2.65;;;;;;;;;;4987785;28;20021;-62
2021/08/26 09:42:39;;;;;;;13.30;2.75;;;;;;;;;;4981855;28;20079;-62
2021/08/26 09:45:34;;;;;;;11.30;2.10;;;;;;;;;;4991745;28;20031;-62
2021/08/26 09:48:21;;;;;;;12.45;2.38;;;;;;;;;;4975548;28;20049;-62
2021/08/26 09:50:47;;;;;;;8.60;2.03;;;;;;;;;;4973974;28;20074;-62
2021/08/26 09:53:16;;;;;;;11.80;2.30;;;;;;;;;;4971729;28;20782;-62
2021/08/26 09:55:48;;;;;;;15.43;2.33;;;;;;;;;;4991618;28;20038;-64
2021/08/26 09:58:14;;;;;;;11.18;2.00;;;;;;;;;;4989804;28;20026;-63
2021/08/26 10:00:42;;;;;;;14.27;2.65;;;;;;;;;;4974652;28;20517;-63
2021/08/26 10:03:10;;;;;;;10.07;1.92;;;;;;;;;;4955387;28;20128;-63
2021/08/26 10:05:37;;;;;;;11.27;2.33;;;;;;;;;;4988207;28;20022;-63
2021/08/26 10:08:03;;;;;;;11.75;2.72;;;;;;;;;;4991414;28;20066;-61
2021/08/26 10:10:29;;;;;;;9.40;2.40;;;;;;;;;;4990113;28;20105;-62
2021/08/26 10:12:57;;;;;;;10.88;2.75;;;;;;;;;;4990462;28;20037;-63
2021/08/26 10:15:23;;;;;;;10.80;2.47;;;;;;;;;;4991495;28;20656;-62
2021/08/26 10:17:49;;;;;;;11.02;2.22;;;;;;;;;;4990277;28;20060;-62
2021/08/26 10:20:14;;;;;;;9.55;2.58;;;;;;;;;;4974340;28;22010;-63
2021/08/26 10:22:43;;;;;;;10.57;2.05;;;;;;;;;;4983041;28;20061;-63
2021/08/26 10:25:11;;;;;;;10.10;2.22;;;;;;;;;;4986880;28;20045;-62
2021/08/26 10:27:39;;;;;;;11.38;1.92;;;;;;;;;;4988014;28;20036;-63
2021/08/26 10:30:28;;;;;;;12.63;2.80;;;;;;;;;;4987408;28;20651;-63
2021/08/26 10:33:30;;;;;;;12.23;2.20;;;;;;;;;;4989284;28;20028;-63
2021/08/26 10:36:15;;;;;;;9.55;2.25;;;;;;;;;;4974282;28;20502;-63
2021/08/26 10:39:19;;;;;;;7.80;2.00;;;;;;;;;;4984903;28;20136;-63
2021/08/26 10:42:28;;;;;;;9.60;2.28;;;;;;;;;;4985125;28;20057;-64
2021/08/26 10:45:12;;;;;;;10.45;1.75;;;;;;;;;;4985760;28;20096;-64
2021/08/26 10:48:00;;;;;;;8.93;1.92;;;;;;;;;;4986529;28;20065;-63
2021/08/26 10:50:49;;;;;;;9.60;1.65;;;;;;;;;;4970861;28;20056;-63
2021/08/26 10:53:37;;;;;;;4.35;0.95;;;;;;;;;;4986518;28;20126;-61
2021/08/26 10:56:21;;;;;;;7.13;1.75;;;;;;;;;;4982836;28;20041;-62
2021/08/26 10:59:25;;;;;;;6.03;1.10;;;;;;;;;;4987192;28;20071;-61
2021/08/26 11:02:31;;;;;;;10.00;1.83;;;;;;;;;;4987524;28;20056;-62
2021/08/26 11:05:32;;;;;;;3.92;0.98;;;;;;;;;;4986369;28;20096;-61
2021/08/26 11:08:25;;;;;;;2.88;0.68;;;;;;;;;;4988098;28;20080;-61
2021/08/26 11:11:30;;;;;;;2.33;0.50;;;;;;;;;;4972347;28;20056;-61
2021/08/26 11:14:21;;;;;;;5.25;0.57;;;;;;;;;;4985367;28;20141;-63
2021/08/26 11:17:05;;;;;;;7.95;0.82;;;;;;;;;;4984569;28;20193;-63
2021/08/26 11:19:53;;;;;;;2.40;0.55;;;;;;;;;;4979892;28;20121;-63
2021/08/26 11:22:57;;;;;;;3.08;0.40;;;;;;;;;;4987577;28;20083;-62
2021/08/26 11:25:41;;;;;;;2.33;0.40;;;;;;;;;;4987376;28;20162;-63
2021/08/26 11:28:25;;;;;;;;;;;;;;;;;;4988016;28;20085;-62
2021/08/26 11:31:10;;;;;;;;;;;;;;;;;;4985604;28;19955;-62
2021/08/26 11:33:54;;;;;;;3.70;0.30;;;;;;;;;;4988120;28;20617;-62
2021/08/26 11:36:38;;;;;;;2.40;0.50;;;;;;;;;;4984377;28;20084;-63
2021/08/26 11:39:27;;;;;;;2.00;0.50;;;;;;;;;;4986799;28;20051;-62
2021/08/26 11:42:24;;;;;;;3.95;0.30;;;;;;;;;;4983465;28;20048;-64
2021/08/26 11:45:14;;;;;;;2.20;0.40;;;;;;;;;;4988006;28;20045;-62
2021/08/26 11:48:02;;;;;;;2.28;0.30;;;;;;;;;;4984962;28;20107;-63
2021/08/26 11:50:46;;;;;;;1.70;0.30;;;;;;;;;;4985502;28;20043;-62
2021/08/26 11:53:30;;;;;;;;;;;;;;;;;;4985661;28;20049;-61
2021/08/26 11:56:15;;;;;;;2.38;0.30;;;;;;;;;;4986490;28;19924;-61
2021/08/26 11:59:01;;;;;;;2.55;0.40;;;;;;;;;;4981867;28;20048;-62
2021/08/26 12:01:45;;;;;;;3.50;0.65;;;;;;;;;;4968992;28;20049;-62
2021/08/26 12:04:33;;;;;;;1.40;0.40;;;;;;;;;;4985725;28;20057;-61
2021/08/26 12:07:23;;;;;;;1.20;0.40;;;;;;;;;;4984321;28;20084;-61
2021/08/26 12:10:10;;;;;;;2.78;0.50;;;;;;;;;;4984733;28;20492;-62
2021/08/26 12:13:00;;;;;;;4.55;0.50;;;;;;;;;;4984367;28;20084;-63
2021/08/26 12:15:53;;;;;;;10.13;0.88;;;;;;;;;;4987722;28;20052;-64
2021/08/26 12:18:37;;;;;;;5.68;0.77;;;;;;;;;;4983756;28;20159;-62
2021/08/26 12:21:24;;;;;;;5.40;0.70;;;;;;;;;;4983561;28;20099;-62
2021/08/26 12:24:08;;;;;;;3.20;0.52;;;;;;;;;;4972293;28;20044;-62
2021/08/26 12:26:53;;;;;;;2.90;0.50;;;;;;;;;;4981634;28;20052;-62
2021/08/26 12:29:20;;;;;;;9.88;1.33;;;;;;;;;;4984057;28;20037;-64
2021/08/26 12:31:47;;;;;;;1.55;0.80;;;;;;;;;;4984655;28;20033;-62
2021/08/26 12:34:15;;;;;;;4.95;0.90;;;;;;;;;;4981885;28;20025;-62
2021/08/26 12:36:41;;;;;;;5.35;0.85;;;;;;;;;;4982618;28;20130;-64
2021/08/26 12:39:28;;;;;;;7.80;1.10;;;;;;;;;;4981610;28;20034;-61
2021/08/26 12:42:15;;;;;;;2.58;0.65;;;;;;;;;;4983620;28;20029;-64
2021/08/26 12:44:41;;;;;;;2.22;0.60;;;;;;;;;;4983463;28;20041;-63
2021/08/26 12:47:08;;;;;;;3.63;0.70;;;;;;;;;;4984740;28;20072;-63
2021/08/26 12:49:46;;;;;;;5.78;0.68;;;;;;;;;;4985087;28;20465;-62
2021/08/26 12:52:15;;;;;;;4.07;0.57;;;;;;;;;;4980280;28;20042;-62
2021/08/26 12:54:56;;;;;;;6.65;0.73;;;;;;;;;;4984198;28;20021;-62
2021/08/26 12:57:23;;;;;;;0.88;0.25;;;;;;;;;;4982347;28;20030;-63
2021/08/26 12:59:50;;;;;;;0.77;0.32;;;;;;;;;;4965009;28;20033;-64
2021/08/26 13:02:16;;;;;;;3.70;0.60;;;;;;;;;;4967848;28;20687;-63
2021/08/26 13:04:59;;;;;;;3.10;0.68;;;;;;;;;;4983448;28;20034;-63
2021/08/26 13:07:24;;;;;;;2.05;0.52;;;;;;;;;;4966371;28;20042;-63
2021/08/26 13:10:03;;;;;;;1.30;0.50;;;;;;;;;;4953801;28;20049;-61
2021/08/26 13:12:34;;;;;;;6.20;0.50;;;;;;;;;;4982951;28;20034;-62
2021/08/26 13:15:00;;;;;;;1.70;0.55;;;;;;;;;;4983556;28;20057;-63
2021/08/26 13:17:28;;;;;;;3.70;0.70;;;;;;;;;;4985396;28;20584;-61
2021/08/26 13:20:02;;;;;;;1.58;0.68;;;;;;;;;;4983307;28;20033;-61
2021/08/26 13:22:34;;;;;;;1.10;0.40;;;;;;;;;;4986071;28;20026;-62
2021/08/26 13:25:04;;;;;;;3.35;0.98;;;;;;;;;;4969511;28;20115;-62
2021/08/26 13:27:35;;;;;;;2.23;0.70;;;;;;;;;;4982333;28;20030;-63
2021/08/26 13:30:02;;;;;;;3.92;0.50;;;;;;;;;;4984555;28;20289;-64
2021/08/26 13:32:28;;;;;;;2.13;0.60;;;;;;;;;;4987059;28;20560;-63
2021/08/26 13:34:54;;;;;;;3.13;0.40;;;;;;;;;;4984975;28;20191;-62
2021/08/26 13:37:19;;;;;;;5.47;0.63;;;;;;;;;;4983657;28;20026;-63
2021/08/26 13:39:50;;;;;;;1.13;0.40;;;;;;;;;;4983360;28;20038;-62
2021/08/26 13:42:16;;;;;;;3.92;0.68;;;;;;;;;;4982719;28;21979;-62
2021/08/26 13:44:46;;;;;;;4.22;0.60;;;;;;;;;;4965239;28;20033;-61
2021/08/26 13:47:12;;;;;;;9.85;0.93;;;;;;;;;;4978608;28;20334;-62
2021/08/26 13:49:40;;;;;;;2.22;0.60;;;;;;;;;;4984898;28;20033;-62
2021/08/26 13:52:08;;;;;;;5.32;0.70;;;;;;;;;;4984486;28;20065;-62
2021/08/26 13:54:37;;;;;;;3.13;0.35;;;;;;;;;;4985298;28;20042;-62
2021/08/26 13:57:05;;;;;;;3.50;0.57;;;;;;;;;;4983083;28;20042;-62
2021/08/26 13:59:31;;;;;;;2.03;0.50;;;;;;;;;;4978939;28;20052;-61
2021/08/26 14:01:59;;;;;;;4.22;0.88;;;;;;;;;;4984319;28;20043;-59
2021/08/26 14:04:25;;;;;;;2.78;0.50;;;;;;;;;;4979614;28;20037;-61
2021/08/26 14:06:55;;;;;;;0.63;0.30;;;;;;;;;;4969411;28;20033;-61
2021/08/26 14:09:20;;;;;;;1.08;0.95;;;;;;;;;;4982611;28;20042;-61
2021/08/26 14:11:49;;;;;;;3.40;0.75;;;;;;;;;;4982738;28;20133;-61
2021/08/26 14:14:19;;;;;;;2.65;0.50;;;;;;;;;;4985481;28;20049;-61
2021/08/26 14:16:49;;;;;;;6.07;0.60;;;;;;;;;;4980991;28;20054;-62
2021/08/26 14:19:17;;;;;;;4.47;0.50;;;;;;;;;;4968334;28;20096;-60
2021/08/26 14:21:45;;;;;;;5.50;0.93;;;;;;;;;;4983454;28;20096;-62
2021/08/26 14:24:10;;;;;;;4.20;0.50;;;;;;;;;;4968129;28;20572;-62
2021/08/26 14:26:38;;;;;;;3.78;0.50;;;;;;;;;;4963921;28;20059;-61
2021/08/26 14:29:09;;;;;;;2.63;0.50;;;;;;;;;;4970248;28;20038;-62
2021/08/26 14:31:34;;;;;;;2.45;0.57;;;;;;;;;;4951721;28;20528;-61
2021/08/26 14:34:02;;;;;;;3.75;0.50;;;;;;;;;;4981636;28;20037;-61
2021/08/26 14:36:30;;;;;;;2.53;0.80;;;;;;;;;;4986213;28;20839;-62
2021/08/26 14:38:58;;;;;;;8.05;0.75;;;;;;;;;;4988109;28;20025;-62
2021/08/26 14:41:23;;;;;;;4.32;0.73;;;;;;;;;;4970209;28;20492;-60
2021/08/26 14:43:51;;;;;;;4.32;0.57;;;;;;;;;;4987360;28;20037;-60
2021/08/26 14:46:18;;;;;;;4.05;0.45;;;;;;;;;;4987048;28;20200;-62
2021/08/26 14:48:48;;;;;;;6.50;0.85;;;;;;;;;;4984542;28;20164;-61
2021/08/26 14:51:14;;;;;;;5.18;0.52;;;;;;;;;;4985976;28;20041;-62
2021/08/26 14:53:40;;;;;;;5.25;0.55;;;;;;;;;;4963485;28;20120;-62
2021/08/26 14:56:05;;;;;;;1.00;0.25;;;;;;;;;;4969288;28;20026;-61
2021/08/26 14:58:33;;;;;;;2.38;0.50;;;;;;;;;;4973862;28;20133;-61
2021/08/26 15:01:01;;;;;;;5.60;0.55;;;;;;;;;;4986540;28;20587;-62
2021/08/26 15:03:27;;;;;;;7.05;1.20;;;;;;;;;;4954535;28;20037;-63